Impacts TAF Board
For situational awareness. Not to be used for flight planning purposes.
IDs:

KGPT - Gulfport-Biloxi Intl, MS, US

Issued at 2012 UTC 30 Jun 2022
Updated at 2313 UTC 30 Jun 2022
Potential Impact None Slight Moderate High
Time2253Z 01/00Z 01/01Z 01/02Z 01/03Z 01/04Z 01/05Z 01/06Z 01/07Z 01/08Z 01/09Z 01/10Z 01/11Z 01/12Z>>
Type OBS PRVL PRVL PRVL PRVL PRVL PRVL PRVL PRVL PRVL PRVL PRVL PRVL PRVL
VIS 10 >6 >6 >6 >6 >6 >6 >6 >6 >6 >6 >6 >6 >6
CIG -- 60 60 60 60 60 60 60 60 60 60 50 50 50
Cover CLR BKN BKN BKN BKN BKN BKN BKN BKN BKN BKN BKN BKN BKN
FltCat VFR VFR VFR VFR VFR VFR VFR VFR VFR VFR VFR VFR VFR VFR
WX -- -- -- -- -- -- -- -- -- -- -- VCSH VCSH VCSH
WDir 120 120 120 VRB VRB VRB VRB VRB VRB VRB VRB VRB VRB VRB
WSpd 10 8 8 4 4 4 4 4 4 4 4 4 4 4
WGst -- -- -- -- -- -- -- -- -- -- -- -- -- --
WSHgt -- -- -- -- -- -- -- -- -- -- -- -- -- --
WSDir -- -- -- -- -- -- -- -- -- -- -- -- -- --
WSSpd -- -- -- -- -- -- -- -- -- -- -- -- -- --
Raw TAF
KGPT 302012Z 3020/0118 12008KT P6SM SCT025 BKN060
  FM010200 VRB04KT P6SM SCT025 BKN060
  FM011000 VRB04KT P6SM VCSH SCT020 BKN050
  FM011700 17006KT P6SM VCTS SCT025CB OVC080


Raw METAR
KGPT 302253Z 12010KT 10SM CLR 28/25 A3005 RMK AO2 SLP175 T02830250
KGPT 302153Z 12011KT 10SM SCT024 29/25 A3006 RMK AO2 SLP178 T02890250
KGPT 302053Z COR 13013G24KT 10SM SCT024 29/24 A3004 RMK AO2 SLP171 T02890239 56021

METAR Board
Radar Display
Forecast Discussion
For situational awareness. Not to be used for flight planning purposes.